createdAt,value
2019-04-13T00:01:03.447Z,18.00
2019-04-13T00:03:33.022Z,19.07
2019-04-13T00:06:12.846Z,18.25
2019-04-13T00:08:42.331Z,17.85
2019-04-13T00:11:22.507Z,18.92
2019-04-13T00:13:51.914Z,17.87
2019-04-13T00:16:22.846Z,18.82
2019-04-13T00:18:52.443Z,17.12
2019-04-13T00:21:23.387Z,16.32
2019-04-13T00:23:52.939Z,17.00
2019-04-13T00:26:22.388Z,18.48
2019-04-13T00:28:51.807Z,17.48
2019-04-13T00:31:22.615Z,17.32
2019-04-13T00:33:54.543Z,17.98
2019-04-13T00:36:24.100Z,18.95
2019-04-13T00:38:53.518Z,17.50
2019-04-13T00:41:24.436Z,19.20
2019-04-13T00:43:53.923Z,17.80
2019-04-13T00:46:24.767Z,17.57
2019-04-13T00:48:54.370Z,17.35
2019-04-13T00:51:23.823Z,17.70
2019-04-13T00:53:53.362Z,19.23
2019-04-13T00:56:22.982Z,17.80
2019-04-13T00:58:52.404Z,17.80
2019-04-13T01:01:22.003Z,17.23
2019-04-13T01:03:51.563Z,18.15
2019-04-13T01:06:22.396Z,17.30
2019-04-13T01:08:51.878Z,19.75
2019-04-13T01:11:21.392Z,19.02
2019-04-13T01:13:50.915Z,17.77
2019-04-13T01:16:20.364Z,18.50
2019-04-13T01:18:49.930Z,18.50
2019-04-13T01:21:20.778Z,19.98
2019-04-13T01:23:50.400Z,18.60
2019-04-13T01:26:21.112Z,19.80
2019-04-13T01:28:50.812Z,20.00
2019-04-13T01:31:20.337Z,20.37
2019-04-13T01:33:51.570Z,18.52
2019-04-13T01:36:22.443Z,21.40
2019-04-13T01:38:51.954Z,20.52
2019-04-13T01:41:22.871Z,18.87
2019-04-13T01:43:52.279Z,18.55
2019-04-13T01:46:22.995Z,19.95
2019-04-13T01:48:52.416Z,20.32
2019-04-13T01:51:22.003Z,19.52
2019-04-13T01:53:51.531Z,21.25
2019-04-13T01:56:21.044Z,19.82
2019-04-13T01:58:50.481Z,19.82
2019-04-13T02:01:24.226Z,19.32
2019-04-13T02:03:55.546Z,19.98
2019-04-13T02:06:25.026Z,19.10
2019-04-13T02:09:08.259Z,19.82
2019-04-13T02:11:39.427Z,19.07
2019-04-13T02:14:08.939Z,20.32
2019-04-13T02:16:38.423Z,20.43
2019-04-13T02:19:08.039Z,20.72
2019-04-13T02:21:37.520Z,21.42
2019-04-13T02:24:06.963Z,20.77
2019-04-13T02:26:37.643Z,20.50
2019-04-13T02:29:07.179Z,20.97
2019-04-13T02:31:37.859Z,20.35
2019-04-13T02:34:07.310Z,20.55
2019-04-13T02:36:36.783Z,19.92
2019-04-13T02:39:07.011Z,21.00
2019-04-13T02:41:37.594Z,20.45
2019-04-13T02:44:07.172Z,20.10
2019-04-13T02:46:36.661Z,22.10
2019-04-13T02:49:06.180Z,20.02
2019-04-13T02:51:37.045Z,21.95
2019-04-13T02:54:06.487Z,20.70
2019-04-13T02:56:37.379Z,22.30
2019-04-13T02:59:06.851Z,22.87
2019-04-13T03:01:36.339Z,19.87
2019-04-13T03:04:05.861Z,20.70
2019-04-13T03:06:35.273Z,21.97
2019-04-13T03:09:07.190Z,21.57
2019-04-13T03:11:37.944Z,20.60
2019-04-13T03:14:07.391Z,22.13
2019-04-13T03:16:38.511Z,21.30
2019-04-13T03:19:09.665Z,21.70
2019-04-13T03:21:39.147Z,19.90
2019-04-13T03:24:08.786Z,20.60
2019-04-13T03:26:38.488Z,22.30
2019-04-13T03:29:08.064Z,20.15
2019-04-13T03:31:38.764Z,20.00
2019-04-13T03:34:08.432Z,23.52
2019-04-13T03:36:37.889Z,21.15
2019-04-13T03:39:08.644Z,22.40
2019-04-13T03:41:39.815Z,21.57
2019-04-13T03:44:09.221Z,22.67
2019-04-13T03:46:38.632Z,20.43
2019-04-13T03:49:09.135Z,21.87
2019-04-13T03:51:39.953Z,20.48
2019-04-13T03:54:10.419Z,26.45
2019-04-13T03:56:39.978Z,32.00
2019-04-13T03:59:09.468Z,39.10
2019-04-13T04:01:38.987Z,24.18
2019-04-13T04:04:08.389Z,25.17
2019-04-13T04:06:39.332Z,24.12
2019-04-13T04:09:08.730Z,22.90
2019-04-13T04:11:39.723Z,22.50
2019-04-13T04:14:09.294Z,24.25
2019-04-13T04:16:38.834Z,23.87
2019-04-13T04:19:08.507Z,24.75
2019-04-13T04:21:37.986Z,26.25
2019-04-13T04:24:07.396Z,24.07
2019-04-13T04:26:38.106Z,23.00
2019-04-13T04:29:07.618Z,22.87
2019-04-13T04:31:37.066Z,23.62
2019-04-13T04:34:07.625Z,21.70
2019-04-13T04:36:38.347Z,21.85
2019-04-13T04:39:07.952Z,23.18
2019-04-13T04:41:37.798Z,20.68
2019-04-13T04:44:07.283Z,22.70
2019-04-13T04:46:36.733Z,21.25
2019-04-13T04:49:06.142Z,22.37
2019-04-13T04:51:35.714Z,21.93
2019-04-13T04:54:05.124Z,23.12
2019-04-13T04:56:34.566Z,23.12
2019-04-13T04:59:03.980Z,22.98
2019-04-13T05:01:33.426Z,23.22
2019-04-13T05:04:03.027Z,21.52
2019-04-13T05:06:35.564Z,21.73
2019-04-13T05:09:05.951Z,23.12
2019-04-13T05:11:36.267Z,24.12
2019-04-13T05:14:05.679Z,21.62
2019-04-13T05:16:36.685Z,24.18
2019-04-13T05:19:06.118Z,23.90
2019-04-13T05:21:36.818Z,23.38
2019-04-13T05:24:06.324Z,21.77
2019-04-13T05:26:37.135Z,21.68
2019-04-13T05:29:06.558Z,21.82
2019-04-13T05:31:36.002Z,21.57
2019-04-13T05:34:05.460Z,21.82
2019-04-13T05:36:47.219Z,22.73
2019-04-13T05:39:07.231Z,22.22
2019-04-13T05:41:37.998Z,22.50
2019-04-13T05:44:07.754Z,24.77
2019-04-13T05:46:37.283Z,23.80
2019-04-13T05:49:06.731Z,21.80
2019-04-13T05:51:37.615Z,22.32
2019-04-13T05:54:07.064Z,20.75
2019-04-13T05:56:37.754Z,22.10
2019-04-13T05:59:07.275Z,22.17
2019-04-13T06:01:37.986Z,22.58
2019-04-13T06:04:07.442Z,22.55
2019-04-13T06:06:36.856Z,22.50
2019-04-13T06:09:07.707Z,20.75
2019-04-13T06:11:38.766Z,22.90
2019-04-13T06:14:08.270Z,23.90
2019-04-13T06:16:40.271Z,24.05
2019-04-13T06:19:08.823Z,22.55
2019-04-13T06:21:40.435Z,24.87
2019-04-13T06:24:10.587Z,23.30
2019-04-13T06:26:41.918Z,24.45
2019-04-13T06:29:11.543Z,22.98
2019-04-13T06:31:49.879Z,22.05
2019-04-13T06:34:20.934Z,22.77
2019-04-13T06:36:50.426Z,23.15
2019-04-13T06:39:19.883Z,23.65
2019-04-13T06:41:49.305Z,25.43
2019-04-13T06:44:18.766Z,23.13
2019-04-13T06:46:49.740Z,21.10
2019-04-13T06:49:19.701Z,24.20
2019-04-13T06:51:49.940Z,24.30
2019-04-13T06:54:19.389Z,23.83
2019-04-13T06:56:50.072Z,22.53
2019-04-13T06:59:19.614Z,22.07
2019-04-13T07:01:50.496Z,28.47
2019-04-13T07:04:20.018Z,23.40
2019-04-13T07:06:51.149Z,23.13
2019-04-13T07:09:25.977Z,22.70
2019-04-13T07:11:56.278Z,24.27
2019-04-13T07:14:26.544Z,23.60
2019-04-13T07:16:59.169Z,23.50
2019-04-13T07:19:28.584Z,25.30
2019-04-13T07:21:58.066Z,22.90
2019-04-13T07:24:28.666Z,23.90
2019-04-13T07:26:58.600Z,24.00
2019-04-13T07:29:28.031Z,23.87
2019-04-13T07:32:01.371Z,23.57
2019-04-13T07:34:33.752Z,22.23
2019-04-13T07:37:02.510Z,24.03
2019-04-13T07:39:32.046Z,22.93
2019-04-13T07:42:04.899Z,25.27
2019-04-13T07:44:41.805Z,22.27
2019-04-13T07:47:30.608Z,20.53
2019-04-13T07:50:13.790Z,24.63
2019-04-13T07:52:44.513Z,21.50
2019-04-13T07:55:14.121Z,21.90
2019-04-13T07:57:44.851Z,23.60
2019-04-13T08:00:14.770Z,22.87
2019-04-13T08:02:45.465Z,21.13
2019-04-13T08:05:14.914Z,24.10
2019-04-13T08:07:50.072Z,23.00
2019-04-13T08:10:18.427Z,23.50
2019-04-13T08:12:51.423Z,22.83
2019-04-13T08:15:21.033Z,23.33
2019-04-13T08:17:53.699Z,22.10
2019-04-13T08:20:24.465Z,21.60
2019-04-13T08:22:54.683Z,20.83
2019-04-13T08:25:25.462Z,23.63
2019-04-13T08:27:54.910Z,22.00
2019-04-13T08:30:27.120Z,22.50
2019-04-13T08:32:56.625Z,20.90
2019-04-13T08:35:27.311Z,21.67
2019-04-13T08:38:12.063Z,21.00
2019-04-13T08:40:29.123Z,21.10
2019-04-13T08:42:59.304Z,22.60
2019-04-13T08:45:29.298Z,20.30
2019-04-13T08:47:58.758Z,20.23
2019-04-13T08:50:29.436Z,18.53
2019-04-13T08:52:58.954Z,19.50
2019-04-13T08:55:28.362Z,20.10
2019-04-13T08:57:57.889Z,20.40
2019-04-13T09:00:27.340Z,19.00
2019-04-13T09:02:56.876Z,18.27
2019-04-13T09:05:27.547Z,18.63
2019-04-13T09:07:57.066Z,20.90
2019-04-13T09:10:30.104Z,19.33
2019-04-13T09:12:59.142Z,21.30
2019-04-13T09:15:28.898Z,20.33
2019-04-13T09:18:04.233Z,19.83
2019-04-13T09:20:40.014Z,19.00
2019-04-13T09:23:10.802Z,19.97
2019-04-13T09:25:40.419Z,20.87
2019-04-13T09:28:12.066Z,21.40
2019-04-13T09:30:42.029Z,21.80
2019-04-13T09:33:11.483Z,20.43
2019-04-13T09:35:42.162Z,18.23
2019-04-13T09:38:11.681Z,19.60
2019-04-13T09:40:41.163Z,18.70
2019-04-13T09:43:12.324Z,19.13
2019-04-13T09:45:41.881Z,20.07
2019-04-13T09:48:11.405Z,19.47
2019-04-13T09:50:42.086Z,18.27
2019-04-13T09:53:11.539Z,19.70
2019-04-13T09:55:42.228Z,20.50
2019-04-13T09:58:11.679Z,19.87
2019-04-13T10:00:43.989Z,20.23
2019-04-13T10:03:13.579Z,19.03
2019-04-13T10:05:44.277Z,18.60
2019-04-13T10:08:13.782Z,17.70
2019-04-13T10:10:44.941Z,21.27
2019-04-13T10:13:18.792Z,19.90
2019-04-13T10:15:54.111Z,19.03
2019-04-13T10:18:30.947Z,17.77
2019-04-13T10:21:01.636Z,20.30
2019-04-13T10:23:31.149Z,18.53
2019-04-13T10:26:01.886Z,20.33
2019-04-13T10:28:31.366Z,18.80
2019-04-13T10:31:02.055Z,18.30
2019-04-13T10:33:31.661Z,17.73
2019-04-13T10:36:02.347Z,18.57
2019-04-13T10:38:32.094Z,16.10
2019-04-13T10:41:02.958Z,18.03
2019-04-13T10:43:32.470Z,19.97
2019-04-13T10:46:06.224Z,17.93
2019-04-13T10:48:52.249Z,19.30
2019-04-13T10:51:23.369Z,15.63
2019-04-13T10:53:52.827Z,17.30
2019-04-13T10:56:22.240Z,17.30
2019-04-13T10:58:51.658Z,18.47
2019-04-13T11:01:21.181Z,20.40
2019-04-13T11:03:50.601Z,17.20
2019-04-13T11:06:21.328Z,19.40
2019-04-13T11:08:51.513Z,19.80
2019-04-13T11:11:21.557Z,18.87
2019-04-13T11:13:51.043Z,18.60
2019-04-13T11:16:21.755Z,17.17
2019-04-13T11:18:51.317Z,18.37
2019-04-13T11:21:20.835Z,18.70
2019-04-13T11:23:50.352Z,17.77
2019-04-13T11:26:21.082Z,17.27
2019-04-13T11:28:50.483Z,18.20
2019-04-13T11:31:22.758Z,17.83
2019-04-13T11:33:51.116Z,19.43
2019-04-13T11:36:20.635Z,19.90
2019-04-13T11:38:50.120Z,18.70
2019-04-13T11:41:24.120Z,19.73
2019-04-13T11:44:11.697Z,20.60
2019-04-13T11:46:54.990Z,18.20
2019-04-13T11:49:26.163Z,22.50
2019-04-13T11:51:55.714Z,18.77
2019-04-13T11:54:28.047Z,23.30
2019-04-13T11:56:56.573Z,17.80
2019-04-13T11:59:26.080Z,19.10
2019-04-13T12:01:59.835Z,17.37
2019-04-13T12:04:33.687Z,19.40
2019-04-13T12:07:05.063Z,18.40
2019-04-13T12:09:49.753Z,17.70
2019-04-13T12:12:21.839Z,18.87
2019-04-13T12:14:59.178Z,17.40
2019-04-13T12:17:51.119Z,19.20
2019-04-13T12:20:27.070Z,18.97
2019-04-13T12:22:56.660Z,18.17
2019-04-13T12:25:27.439Z,18.20
2019-04-13T12:27:57.029Z,19.70
2019-04-13T12:30:30.983Z,19.10
2019-04-13T12:33:00.900Z,18.20
2019-04-13T12:35:34.147Z,19.83
2019-04-13T12:38:03.917Z,18.10
2019-04-13T12:40:37.395Z,16.97
2019-04-13T12:43:06.915Z,17.73
2019-04-13T12:45:37.167Z,19.07
2019-04-13T12:48:06.694Z,18.90
2019-04-13T12:50:37.578Z,18.50
2019-04-13T12:53:07.298Z,19.30
2019-04-13T12:55:36.780Z,17.67
2019-04-13T12:58:06.223Z,17.67
2019-04-13T13:00:41.705Z,19.63
2019-04-13T13:03:19.198Z,18.10
2019-04-13T13:05:51.522Z,17.93
2019-04-13T13:08:21.066Z,17.23
2019-04-13T13:10:51.770Z,18.20
2019-04-13T13:13:21.810Z,18.90
2019-04-13T13:15:52.039Z,17.23
2019-04-13T13:18:26.138Z,16.83
2019-04-13T13:20:53.898Z,17.70
2019-04-13T13:23:23.345Z,18.40
2019-04-13T13:25:52.764Z,19.60
2019-04-13T13:28:22.323Z,18.93
2019-04-13T13:30:53.010Z,17.60
2019-04-13T13:33:22.458Z,17.67
2019-04-13T13:35:51.873Z,17.70
2019-04-13T13:38:21.315Z,17.47
2019-04-13T13:40:52.010Z,19.33
2019-04-13T13:43:21.452Z,19.03
2019-04-13T13:45:52.345Z,18.60
2019-04-13T13:48:21.798Z,18.03
2019-04-13T13:50:53.238Z,18.13
2019-04-13T13:53:23.141Z,17.20
2019-04-13T13:55:53.822Z,17.07
2019-04-13T13:58:41.422Z,17.50
2019-04-13T14:01:15.624Z,18.30
2019-04-13T14:03:45.085Z,17.37
2019-04-13T14:06:15.986Z,17.60
2019-04-13T14:08:45.427Z,18.20
2019-04-13T14:11:14.850Z,18.40
2019-04-13T14:13:44.381Z,18.27
2019-04-13T14:16:15.167Z,18.50
2019-04-13T14:18:44.703Z,20.00
2019-04-13T14:21:14.116Z,18.50
2019-04-13T14:23:43.535Z,16.57
2019-04-13T14:26:14.353Z,17.20
2019-04-13T14:28:43.778Z,18.60
2019-04-13T14:31:13.290Z,17.73
2019-04-13T14:33:42.698Z,17.90
2019-04-13T14:36:12.310Z,18.10
2019-04-13T14:38:41.829Z,18.70
2019-04-13T14:41:11.328Z,19.93
2019-04-13T14:43:41.287Z,18.77
2019-04-13T14:46:12.194Z,18.43
2019-04-13T14:48:41.876Z,16.80
2019-04-13T14:51:12.597Z,19.57
2019-04-13T14:53:46.085Z,19.03
2019-04-13T14:56:14.454Z,19.70
2019-04-13T14:58:45.810Z,18.20
2019-04-13T15:01:16.344Z,18.90
2019-04-13T15:03:45.839Z,18.00
2019-04-13T15:06:18.017Z,18.80
2019-04-13T15:08:47.974Z,18.30
2019-04-13T15:11:18.656Z,18.90
2019-04-13T15:13:49.370Z,19.07
2019-04-13T15:16:23.152Z,19.73
2019-04-13T15:18:54.297Z,19.50
2019-04-13T15:21:28.616Z,17.27
2019-04-13T15:23:56.258Z,18.10
2019-04-13T15:26:27.649Z,18.17
2019-04-13T15:28:58.142Z,19.70
2019-04-13T15:31:31.846Z,24.00
2019-04-13T15:34:00.534Z,19.40
2019-04-13T15:36:33.009Z,19.50
2019-04-13T15:39:05.871Z,18.70
2019-04-13T15:41:46.155Z,19.00
2019-04-13T15:44:09.067Z,17.63
2019-04-13T15:46:39.400Z,18.90
2019-04-13T15:49:08.988Z,19.77
2019-04-13T15:51:43.024Z,18.47
2019-04-13T15:54:12.232Z,18.10
2019-04-13T15:56:44.424Z,19.20
2019-04-13T15:59:16.903Z,17.90
2019-04-13T16:01:48.073Z,19.93
2019-04-13T16:04:18.521Z,19.93
2019-04-13T16:06:50.772Z,19.73
2019-04-13T16:09:28.365Z,18.50
2019-04-13T16:12:07.135Z,17.80
2019-04-13T16:14:35.281Z,18.70
2019-04-13T16:17:05.834Z,19.87
2019-04-13T16:19:35.347Z,18.50
2019-04-13T16:22:07.059Z,19.93
2019-04-13T16:24:37.276Z,17.80
2019-04-13T16:27:10.098Z,18.80
2019-04-13T16:29:44.694Z,19.70
2019-04-13T16:32:16.759Z,18.77
2019-04-13T16:34:53.740Z,19.73
2019-04-13T16:37:27.908Z,18.73
2019-04-13T16:39:57.851Z,18.77
2019-04-13T16:42:31.041Z,29.93
2019-04-13T16:45:19.058Z,19.37
2019-04-13T16:48:00.982Z,18.77
2019-04-13T16:50:33.143Z,20.77
2019-04-13T16:53:20.880Z,20.40
2019-04-13T16:56:00.186Z,20.03
2019-04-13T16:58:39.467Z,18.37
2019-04-13T17:01:14.855Z,20.30
2019-04-13T17:03:50.118Z,20.50
2019-04-13T17:06:21.087Z,19.17
2019-04-13T17:08:51.256Z,19.50
2019-04-13T17:11:21.259Z,20.93
2019-04-13T17:13:51.111Z,18.33
2019-04-13T17:16:23.333Z,22.30
2019-04-13T17:18:58.955Z,23.87
2019-04-13T17:21:42.280Z,18.73
2019-04-13T17:24:24.120Z,18.73
2019-04-13T17:26:58.676Z,18.90
2019-04-13T17:29:30.109Z,18.30
2019-04-13T17:32:02.503Z,19.27
2019-04-13T17:34:34.411Z,19.93
2019-04-13T17:37:12.962Z,18.47
2019-04-13T17:39:44.027Z,18.20
2019-04-13T17:42:27.463Z,19.77
2019-04-13T17:44:58.523Z,20.40
2019-04-13T17:47:31.056Z,21.03
2019-04-13T17:50:17.851Z,21.40
2019-04-13T17:52:59.340Z,20.97
2019-04-13T17:55:46.587Z,20.03
2019-04-13T17:58:18.794Z,20.13
2019-04-13T18:01:03.346Z,19.30
2019-04-13T18:03:34.771Z,19.40
2019-04-13T18:06:12.885Z,19.50
2019-04-13T18:09:01.767Z,19.70
2019-04-13T18:11:46.725Z,19.90
2019-04-13T18:14:35.737Z,18.77
2019-04-13T18:17:28.019Z,18.37
2019-04-13T18:19:58.605Z,20.73
2019-04-13T18:22:28.795Z,20.53
2019-04-13T18:24:59.167Z,19.67
2019-04-13T18:27:31.092Z,20.67
2019-04-13T18:30:11.357Z,20.87
2019-04-13T18:32:33.332Z,19.30
2019-04-13T18:35:03.084Z,20.90
2019-04-13T18:37:34.288Z,20.57
2019-04-13T18:40:04.512Z,23.27
2019-04-13T18:42:35.758Z,19.83
2019-04-13T18:45:05.997Z,19.57
2019-04-13T18:47:37.106Z,20.50
2019-04-13T18:50:08.207Z,19.97
2019-04-13T18:52:39.093Z,20.37
2019-04-13T18:55:08.580Z,20.63
2019-04-13T18:57:40.378Z,20.70
2019-04-13T19:00:09.958Z,20.50
2019-04-13T19:02:42.126Z,17.93
2019-04-13T19:05:11.970Z,19.83
2019-04-13T19:07:43.056Z,20.77
2019-04-13T19:10:12.753Z,21.00
2019-04-13T19:12:43.577Z,20.10
2019-04-13T19:15:13.032Z,19.97
2019-04-13T19:17:44.211Z,19.70
2019-04-13T19:20:14.485Z,20.77
2019-04-13T19:22:45.351Z,21.80
2019-04-13T19:25:14.991Z,23.50
2019-04-13T19:27:45.962Z,24.27
2019-04-13T19:30:17.757Z,24.20
2019-04-13T19:32:48.991Z,23.07
2019-04-13T19:35:19.391Z,21.37
2019-04-13T19:37:50.430Z,21.00
2019-04-13T19:40:20.279Z,22.60
2019-04-13T19:42:51.389Z,22.30
2019-04-13T19:45:20.867Z,23.17
2019-04-13T19:47:52.034Z,23.30
2019-04-13T19:50:21.442Z,22.70
2019-04-13T19:52:56.478Z,23.73
2019-04-13T19:55:26.036Z,22.23
2019-04-13T19:57:55.575Z,25.13
2019-04-13T20:00:26.895Z,22.37
2019-04-13T20:02:56.407Z,21.63
2019-04-13T20:05:27.441Z,22.00
2019-04-13T20:07:56.978Z,25.10
2019-04-13T20:10:26.473Z,24.00
2019-04-13T20:12:57.797Z,22.80
2019-04-13T20:15:29.218Z,22.03
2019-04-13T20:17:58.912Z,23.42
2019-04-13T20:20:28.329Z,23.95
2019-04-13T20:22:57.880Z,24.57
2019-04-13T20:25:30.965Z,24.30
2019-04-13T20:28:00.604Z,23.77
2019-04-13T20:30:30.621Z,23.30
2019-04-13T20:33:00.279Z,26.82
2019-04-13T20:35:30.206Z,23.25
2019-04-13T20:37:59.892Z,22.58
2019-04-13T20:40:44.422Z,23.73
2019-04-13T20:43:16.489Z,23.02
2019-04-13T20:45:46.255Z,23.67
2019-04-13T20:48:16.153Z,23.83
2019-04-13T20:50:45.655Z,24.15
2019-04-13T20:53:15.098Z,23.98
2019-04-13T20:55:46.069Z,24.77
2019-04-13T20:58:16.187Z,24.82
2019-04-13T21:00:46.538Z,26.10
2019-04-13T21:03:16.481Z,24.13
2019-04-13T21:05:47.630Z,26.75
2019-04-13T21:08:17.442Z,25.00
2019-04-13T21:10:48.346Z,26.33
2019-04-13T21:13:17.872Z,24.00
2019-04-13T21:15:53.161Z,28.65
2019-04-13T21:18:23.302Z,25.95
2019-04-13T21:20:55.283Z,24.60
2019-04-13T21:23:25.544Z,25.52
2019-04-13T21:25:57.579Z,24.82
2019-04-13T21:28:27.636Z,24.37
2019-04-13T21:30:57.862Z,26.17
2019-04-13T21:33:27.927Z,25.37
2019-04-13T21:35:59.726Z,25.35
2019-04-13T21:38:30.183Z,25.45
2019-04-13T21:41:00.186Z,25.15
2019-04-13T21:43:32.604Z,25.50
2019-04-13T21:46:02.058Z,24.75
2019-04-13T21:48:34.261Z,26.05
2019-04-13T21:51:16.802Z,25.35
2019-04-13T21:53:50.867Z,26.10
2019-04-13T21:56:21.156Z,27.37
2019-04-13T21:58:51.245Z,24.70
2019-04-13T22:01:32.899Z,25.72
2019-04-13T22:04:04.438Z,26.35
2019-04-13T22:06:34.241Z,24.55
2019-04-13T22:09:06.834Z,26.77
2019-04-13T22:11:38.609Z,26.10
2019-04-13T22:14:09.866Z,26.02
2019-04-13T22:16:41.425Z,25.65
2019-04-13T22:19:11.442Z,25.10
2019-04-13T22:21:41.500Z,26.70
2019-04-13T22:24:11.417Z,25.02
2019-04-13T22:26:45.450Z,25.37
2019-04-13T22:29:24.515Z,24.02
2019-04-13T22:32:03.455Z,26.42
2019-04-13T22:34:35.705Z,27.22
2019-04-13T22:37:06.054Z,26.45
2019-04-13T22:39:35.734Z,27.50
2019-04-13T22:42:05.746Z,26.12
2019-04-13T22:44:45.579Z,24.10
2019-04-13T22:47:10.336Z,25.00
2019-04-13T22:49:42.800Z,26.80
2019-04-13T22:52:30.393Z,25.55
2019-04-13T22:55:04.410Z,25.27
2019-04-13T22:57:39.424Z,26.10
2019-04-13T23:00:17.231Z,24.75
2019-04-13T23:02:49.695Z,25.08
2019-04-13T23:05:19.810Z,25.37
2019-04-13T23:07:52.279Z,26.50
2019-04-13T23:10:22.521Z,26.05
2019-04-13T23:12:52.949Z,25.72
2019-04-13T23:15:30.474Z,25.48
2019-04-13T23:17:55.287Z,25.62
2019-04-13T23:20:25.617Z,27.05
2019-04-13T23:22:56.228Z,24.05
2019-04-13T23:25:27.375Z,25.97
2019-04-13T23:27:57.025Z,25.90
2019-04-13T23:30:26.987Z,24.90
2019-04-13T23:32:57.441Z,26.95
2019-04-13T23:35:28.006Z,24.32
2019-04-13T23:37:58.515Z,25.82
2019-04-13T23:40:30.923Z,25.43
2019-04-13T23:43:01.489Z,26.10
2019-04-13T23:45:35.420Z,26.93
2019-04-13T23:48:04.677Z,26.80
2019-04-13T23:50:34.966Z,23.07
2019-04-13T23:53:05.464Z,24.63
2019-04-13T23:55:37.834Z,25.68
2019-04-13T23:58:14.937Z,24.77
